createdAt,value
2023-12-11T00:01:08.268Z,19.37
2023-12-11T00:05:09.923Z,17.47
2023-12-11T00:09:11.457Z,13.93
2023-12-11T00:13:13.363Z,14.80
2023-12-11T00:17:16.685Z,19.07
2023-12-11T00:21:18.500Z,14.90
2023-12-11T00:25:20.297Z,17.60
2023-12-11T00:29:21.824Z,11.60
2023-12-11T00:33:25.000Z,14.83
2023-12-11T00:37:26.560Z,19.33
2023-12-11T00:41:28.394Z,15.93
2023-12-11T00:45:30.144Z,17.97
2023-12-11T00:49:33.416Z,15.43
2023-12-11T00:53:34.992Z,17.13
2023-12-11T00:57:36.611Z,15.00
2023-12-11T01:01:38.169Z,14.40
2023-12-11T01:05:41.102Z,19.43
2023-12-11T01:09:42.991Z,20.60
2023-12-11T01:13:44.770Z,15.97
2023-12-11T01:17:46.444Z,17.80
2023-12-11T01:21:49.676Z,13.90
2023-12-11T01:25:51.268Z,14.77
2023-12-11T01:29:54.140Z,11.93
2023-12-11T01:33:55.737Z,12.03
2023-12-11T01:37:58.688Z,23.33
2023-12-11T01:42:00.345Z,18.73
2023-12-11T01:46:05.961Z,12.27
2023-12-11T01:50:09.034Z,17.13
2023-12-11T01:54:12.171Z,13.97
2023-12-11T01:58:14.710Z,18.03
2023-12-11T02:02:17.708Z,13.40
2023-12-11T02:06:19.784Z,19.13
2023-12-11T02:10:22.698Z,12.80
2023-12-11T02:14:24.421Z,15.83
2023-12-11T02:18:26.059Z,18.73
2023-12-11T02:22:27.908Z,14.07
2023-12-11T02:26:31.221Z,18.43
2023-12-11T02:30:35.886Z,13.43
2023-12-11T02:34:37.586Z,17.27
2023-12-11T02:38:39.282Z,20.03
2023-12-11T02:42:48.942Z,19.53
2023-12-11T02:46:50.470Z,17.63
2023-12-11T02:50:52.069Z,15.70
2023-12-11T02:54:53.671Z,16.93
2023-12-11T02:58:56.618Z,18.23
2023-12-11T03:02:58.459Z,15.60
2023-12-11T03:07:00.041Z,17.53
2023-12-11T03:11:01.570Z,22.63
2023-12-11T03:15:07.526Z,17.10
2023-12-11T03:19:09.299Z,15.07
2023-12-11T03:23:10.841Z,11.50
2023-12-11T03:27:12.784Z,18.50
2023-12-11T03:31:15.946Z,15.20
2023-12-11T03:35:17.506Z,19.17
2023-12-11T03:39:19.056Z,19.37
2023-12-11T03:43:20.654Z,19.73
2023-12-11T03:47:23.673Z,16.63
2023-12-11T03:51:25.444Z,10.63
2023-12-11T03:55:26.997Z,16.20
2023-12-11T03:59:28.484Z,14.10
2023-12-11T04:03:31.866Z,14.97
2023-12-11T04:07:33.509Z,11.83
2023-12-11T04:11:35.473Z,16.70
2023-12-11T04:15:37.254Z,13.03
2023-12-11T04:19:40.209Z,12.57
2023-12-11T04:23:42.916Z,16.07
2023-12-11T04:27:44.802Z,12.87
2023-12-11T04:31:46.373Z,18.77
2023-12-11T04:35:49.693Z,13.37
2023-12-11T04:39:51.264Z,17.40
2023-12-11T04:43:52.802Z,15.90
2023-12-11T04:47:54.347Z,15.27
2023-12-11T04:51:57.463Z,12.40
2023-12-11T04:55:59.041Z,13.83
2023-12-11T05:00:01.503Z,8.67
2023-12-11T05:04:03.149Z,16.23
2023-12-11T05:08:06.936Z,16.67
2023-12-11T05:12:08.804Z,14.60
2023-12-11T05:16:10.363Z,12.57
2023-12-11T05:20:12.344Z,11.23
2023-12-11T05:24:15.906Z,15.97
2023-12-11T05:28:17.554Z,12.00
2023-12-11T05:32:19.076Z,14.43
2023-12-11T05:36:20.575Z,11.43
2023-12-11T05:40:24.179Z,11.50
2023-12-11T05:44:25.832Z,13.23
2023-12-11T05:48:27.666Z,11.50
2023-12-11T05:52:29.452Z,10.27
2023-12-11T05:56:32.341Z,14.57
2023-12-11T06:00:34.014Z,9.13
2023-12-11T06:04:35.895Z,11.90
2023-12-11T06:08:37.410Z,13.57
2023-12-11T06:12:40.340Z,16.63
2023-12-11T06:16:41.875Z,11.07
2023-12-11T06:20:43.481Z,10.93
2023-12-11T06:24:45.049Z,7.33
2023-12-11T06:28:47.952Z,13.60
2023-12-11T06:32:49.705Z,10.83
2023-12-11T06:36:51.382Z,12.60
2023-12-11T06:40:53.272Z,10.07
2023-12-11T06:44:57.220Z,8.10
2023-12-11T06:48:59.192Z,8.90
2023-12-11T06:53:00.963Z,18.07
2023-12-11T06:57:02.581Z,10.57
2023-12-11T07:01:09.943Z,14.03
2023-12-11T07:05:11.607Z,11.40
2023-12-11T07:09:13.267Z,12.87
2023-12-11T07:13:14.874Z,13.07
2023-12-11T07:17:17.788Z,15.20
2023-12-11T07:21:19.433Z,13.83
2023-12-11T07:25:21.001Z,14.20
2023-12-11T07:29:22.804Z,14.20
2023-12-11T07:33:25.799Z,9.87
2023-12-11T07:37:27.408Z,10.73
2023-12-11T07:41:29.245Z,14.47
2023-12-11T07:45:30.743Z,12.20
2023-12-11T07:49:33.748Z,13.73
2023-12-11T07:53:35.339Z,12.50
2023-12-11T07:57:36.841Z,14.90
2023-12-11T08:01:38.464Z,14.47
2023-12-11T08:05:41.451Z,14.53
2023-12-11T08:09:43.344Z,18.20
2023-12-11T08:13:45.637Z,17.90
2023-12-11T08:17:47.214Z,15.43
2023-12-11T08:21:50.124Z,13.70
2023-12-11T08:25:51.730Z,15.20
2023-12-11T08:29:53.313Z,14.63
2023-12-11T08:33:55.209Z,13.17
2023-12-11T08:37:58.106Z,13.60
2023-12-11T08:41:59.660Z,16.20
2023-12-11T08:46:01.215Z,11.70
2023-12-11T08:50:03.334Z,11.63
2023-12-11T08:54:06.414Z,11.87
2023-12-11T08:58:07.949Z,11.37
2023-12-11T09:02:09.547Z,15.00
2023-12-11T09:06:11.297Z,11.30
2023-12-11T09:10:14.625Z,12.60
2023-12-11T09:14:16.288Z,8.80
2023-12-11T09:18:17.938Z,10.87
2023-12-11T09:22:19.615Z,12.17
2023-12-11T09:26:22.528Z,8.03
2023-12-11T09:30:24.350Z,14.80
2023-12-11T09:34:26.406Z,13.97
2023-12-11T09:38:28.112Z,13.97
2023-12-11T09:42:31.725Z,14.13
2023-12-11T09:46:39.433Z,12.27
2023-12-11T09:50:41.346Z,11.47
2023-12-11T09:54:43.327Z,13.80
2023-12-11T09:58:47.063Z,9.77
2023-12-11T10:02:51.344Z,10.53
2023-12-11T10:06:53.514Z,12.80
2023-12-11T10:11:09.194Z,12.07
2023-12-11T10:15:12.141Z,12.83
2023-12-11T10:19:15.051Z,11.80
2023-12-11T10:23:18.227Z,10.93
2023-12-11T10:27:22.742Z,14.47
2023-12-11T10:31:35.436Z,11.53
2023-12-11T10:35:37.053Z,13.57
2023-12-11T10:39:38.695Z,15.13
2023-12-11T10:43:55.347Z,13.37
2023-12-11T10:48:03.834Z,11.30
2023-12-11T10:52:05.599Z,21.93
2023-12-11T10:56:08.896Z,13.30
2023-12-11T11:00:11.956Z,14.60
2023-12-11T11:04:16.783Z,14.03
2023-12-11T11:08:26.756Z,15.57
2023-12-11T11:12:41.065Z,15.93
2023-12-11T11:16:52.695Z,14.10
2023-12-11T11:21:12.163Z,13.00
2023-12-11T11:25:33.473Z,13.13
2023-12-11T11:29:39.039Z,15.07
2023-12-11T11:33:45.143Z,12.00
2023-12-11T11:37:51.050Z,18.33
2023-12-11T11:41:52.608Z,13.27
2023-12-11T11:45:55.074Z,9.93
2023-12-11T11:50:04.601Z,16.87
2023-12-11T11:54:07.785Z,13.13
2023-12-11T11:58:12.025Z,10.33
2023-12-11T12:02:21.727Z,18.67
2023-12-11T12:06:23.404Z,19.73
2023-12-11T12:10:26.855Z,14.17
2023-12-11T12:14:28.468Z,14.27
2023-12-11T12:18:30.333Z,15.23
2023-12-11T12:22:32.171Z,19.13
2023-12-11T12:26:37.189Z,15.33
2023-12-11T12:30:38.817Z,13.80
2023-12-11T12:34:44.955Z,13.47
2023-12-11T12:38:46.700Z,14.87
2023-12-11T12:42:51.360Z,13.07
2023-12-11T12:46:52.947Z,15.27
2023-12-11T12:51:05.138Z,9.07
2023-12-11T12:55:07.159Z,11.07
2023-12-11T12:59:10.087Z,11.10
2023-12-11T13:03:11.650Z,11.30
2023-12-11T13:07:13.224Z,8.03
2023-12-11T13:11:14.747Z,11.23
2023-12-11T13:15:17.669Z,8.33
2023-12-11T13:19:19.515Z,9.00
2023-12-11T13:23:21.082Z,8.20
2023-12-11T13:27:22.665Z,7.73
2023-12-11T13:31:25.884Z,8.30
2023-12-11T13:35:27.547Z,7.20
2023-12-11T13:39:29.065Z,4.90
2023-12-11T13:43:30.629Z,7.13
2023-12-11T13:47:33.828Z,4.40
2023-12-11T13:51:35.716Z,2.73
2023-12-11T13:55:37.162Z,2.77
2023-12-11T13:59:38.668Z,6.67
2023-12-11T14:03:41.561Z,4.83
2023-12-11T14:07:44.665Z,6.07
2023-12-11T14:11:46.291Z,1.80
2023-12-11T14:15:47.840Z,4.10
2023-12-11T14:19:50.888Z,4.10
2023-12-11T14:23:52.894Z,3.77
2023-12-11T14:27:55.989Z,5.23
2023-12-11T14:31:57.561Z,3.00
2023-12-11T14:36:00.415Z,4.37
2023-12-11T14:40:02.116Z,6.17
2023-12-11T14:44:03.818Z,4.30
2023-12-11T14:48:08.089Z,6.33
2023-12-11T14:52:11.454Z,7.53
2023-12-11T14:56:12.915Z,3.53
2023-12-11T15:00:14.971Z,6.77
2023-12-11T15:04:16.567Z,5.50
2023-12-11T15:08:19.450Z,4.87
2023-12-11T15:12:21.381Z,7.97
2023-12-11T15:16:23.292Z,5.73
2023-12-11T15:20:24.962Z,6.97
2023-12-11T15:24:27.904Z,4.90
2023-12-11T15:28:29.497Z,6.47
2023-12-11T15:32:31.496Z,8.93
2023-12-11T15:36:32.995Z,10.83
2023-12-11T15:40:36.130Z,7.10
2023-12-11T15:44:37.625Z,5.93
2023-12-11T15:48:39.519Z,6.37
2023-12-11T15:52:41.024Z,5.50
2023-12-11T15:56:43.893Z,7.00
2023-12-11T16:00:45.591Z,8.60
2023-12-11T16:04:47.420Z,9.47
2023-12-11T16:08:48.880Z,7.80
2023-12-11T16:12:51.828Z,7.30
2023-12-11T16:16:53.519Z,7.97
2023-12-11T16:20:55.002Z,11.73
2023-12-11T16:24:56.878Z,8.07
2023-12-11T16:28:59.753Z,7.97
2023-12-11T16:33:01.289Z,7.40
2023-12-11T16:37:02.824Z,7.70
2023-12-11T16:41:04.747Z,6.87
2023-12-11T16:45:09.608Z,7.33
2023-12-11T16:49:11.228Z,8.73
2023-12-11T16:53:12.999Z,5.83
2023-12-11T16:57:14.771Z,8.20
2023-12-11T17:01:17.752Z,5.37
2023-12-11T17:05:19.469Z,6.77
2023-12-11T17:09:21.124Z,7.77
2023-12-11T17:13:22.683Z,14.33
2023-12-11T17:17:25.543Z,13.40
2023-12-11T17:21:32.104Z,13.67
2023-12-11T17:25:35.790Z,16.10
2023-12-11T17:29:37.351Z,12.97
2023-12-11T17:33:40.206Z,6.27
2023-12-11T17:37:41.840Z,8.27
2023-12-11T17:41:43.335Z,9.67
2023-12-11T17:45:44.940Z,12.37
2023-12-11T17:49:47.782Z,6.63
2023-12-11T17:53:49.299Z,10.67
2023-12-11T17:57:50.794Z,8.37
2023-12-11T18:01:52.444Z,10.50
2023-12-11T18:05:55.289Z,12.50
2023-12-11T18:09:56.833Z,7.50
2023-12-11T18:13:58.310Z,9.13
2023-12-11T18:17:59.900Z,10.30
2023-12-11T18:22:04.732Z,12.33
2023-12-11T18:26:11.380Z,12.60
2023-12-11T18:30:13.624Z,8.30
2023-12-11T18:34:15.338Z,12.93
2023-12-11T18:38:18.292Z,14.60
2023-12-11T18:42:19.765Z,13.43
2023-12-11T18:46:21.516Z,12.30
2023-12-11T18:50:23.080Z,19.73
2023-12-11T18:54:25.879Z,14.70
2023-12-11T18:58:27.535Z,17.80
2023-12-11T19:02:29.292Z,17.83
2023-12-11T19:06:30.913Z,17.83
2023-12-11T19:10:33.822Z,16.53
2023-12-11T19:14:35.325Z,18.37
2023-12-11T19:18:37.064Z,15.17
2023-12-11T19:22:38.609Z,16.70
2023-12-11T19:26:41.490Z,13.17
2023-12-11T19:30:43.294Z,15.60
2023-12-11T19:34:44.822Z,16.33
2023-12-11T19:38:46.604Z,12.73
2023-12-11T19:42:49.480Z,19.13
2023-12-11T19:46:51.140Z,7.27
2023-12-11T19:50:52.672Z,11.60
2023-12-11T19:54:54.174Z,12.40
2023-12-11T19:58:56.994Z,9.67
2023-12-11T20:02:58.555Z,10.37
2023-12-11T20:07:00.075Z,12.67
2023-12-11T20:11:01.553Z,12.17
2023-12-11T20:15:05.149Z,11.03
2023-12-11T20:19:06.706Z,11.17
2023-12-11T20:23:08.290Z,12.43
2023-12-11T20:27:10.342Z,18.13
2023-12-11T20:31:22.060Z,7.60
2023-12-11T20:35:23.559Z,14.17
2023-12-11T20:39:25.352Z,10.87
2023-12-11T20:43:26.864Z,13.47
2023-12-11T20:47:29.879Z,10.10
2023-12-11T20:51:31.586Z,11.53
2023-12-11T20:55:33.134Z,8.17
2023-12-11T20:59:34.800Z,9.03
2023-12-11T21:03:39.139Z,9.10
2023-12-11T21:07:40.637Z,10.40
2023-12-11T21:11:42.224Z,10.47
2023-12-11T21:15:43.684Z,6.60
2023-12-11T21:19:46.688Z,12.00
2023-12-11T21:23:48.747Z,12.60
2023-12-11T21:27:50.291Z,11.47
2023-12-11T21:31:51.834Z,11.27
2023-12-11T21:35:54.912Z,10.33
2023-12-11T21:39:56.479Z,5.83
2023-12-11T21:43:58.083Z,7.93
2023-12-11T21:47:59.890Z,9.93
2023-12-11T21:52:02.815Z,8.43
2023-12-11T21:56:04.953Z,6.73
2023-12-11T22:00:08.018Z,10.70
2023-12-11T22:04:09.689Z,12.27
2023-12-11T22:08:12.630Z,12.13
2023-12-11T22:12:14.192Z,11.43
2023-12-11T22:16:15.862Z,10.17
2023-12-11T22:20:17.905Z,13.73
2023-12-11T22:24:20.707Z,9.20
2023-12-11T22:28:22.422Z,9.80
2023-12-11T22:32:23.879Z,5.87
2023-12-11T22:36:25.649Z,9.27
2023-12-11T22:40:28.477Z,11.07
2023-12-11T22:44:30.268Z,11.83
2023-12-11T22:48:31.902Z,12.53
2023-12-11T22:52:33.430Z,10.53
2023-12-11T22:56:36.467Z,16.27
2023-12-11T23:00:37.956Z,10.03
2023-12-11T23:04:39.521Z,19.00
2023-12-11T23:08:41.179Z,11.03
2023-12-11T23:12:44.087Z,18.47
2023-12-11T23:16:45.536Z,7.70
2023-12-11T23:20:46.999Z,17.47
2023-12-11T23:24:48.521Z,18.27
2023-12-11T23:28:51.795Z,13.30
2023-12-11T23:32:53.328Z,14.20
2023-12-11T23:36:54.903Z,13.77
2023-12-11T23:40:56.398Z,11.80
2023-12-11T23:44:59.441Z,11.67
2023-12-11T23:49:00.967Z,14.77
2023-12-11T23:53:02.473Z,14.50
2023-12-11T23:57:04.680Z,16.30
